createdAt,value
2022-10-18T00:00:02.867Z,14.20
2022-10-18T00:02:31.347Z,14.20
2022-10-18T00:04:58.146Z,14.30
2022-10-18T00:07:24.944Z,14.30
2022-10-18T00:09:51.674Z,14.30
2022-10-18T00:12:18.442Z,14.40
2022-10-18T00:14:47.991Z,14.40
2022-10-18T00:17:14.701Z,14.50
2022-10-18T00:19:41.419Z,14.60
2022-10-18T00:22:08.134Z,14.60
2022-10-18T00:24:35.230Z,14.70
2022-10-18T00:27:01.969Z,14.70
2022-10-18T00:29:28.886Z,14.70
2022-10-18T00:31:55.598Z,14.80
2022-10-18T00:34:22.345Z,14.80
2022-10-18T00:36:49.095Z,14.80
2022-10-18T00:39:18.323Z,14.80
2022-10-18T00:41:45.573Z,14.80
2022-10-18T00:44:12.253Z,14.80
2022-10-18T00:46:42.069Z,14.80
2022-10-18T00:49:14.216Z,14.80
2022-10-18T00:52:23.994Z,14.80
2022-10-18T00:54:52.244Z,14.80
2022-10-18T00:57:19.365Z,14.70
2022-10-18T00:59:46.864Z,14.70
2022-10-18T01:02:18.288Z,14.70
2022-10-18T01:04:46.226Z,14.60
2022-10-18T01:07:27.884Z,14.60
2022-10-18T01:10:09.979Z,14.60
2022-10-18T01:12:54.861Z,14.60
2022-10-18T01:15:30.300Z,14.60
2022-10-18T01:18:15.117Z,14.50
2022-10-18T01:20:51.060Z,14.60
2022-10-18T01:23:35.911Z,14.60
2022-10-18T01:26:36.472Z,14.60
2022-10-18T01:29:25.988Z,14.70
2022-10-18T01:32:07.322Z,14.70
2022-10-18T01:34:36.489Z,14.70
2022-10-18T01:37:07.459Z,14.70
2022-10-18T01:39:37.942Z,14.70
2022-10-18T01:42:08.824Z,14.70
2022-10-18T01:44:37.919Z,14.70
2022-10-18T01:47:07.435Z,14.70
2022-10-18T01:49:34.429Z,14.70
2022-10-18T01:52:01.308Z,14.70
2022-10-18T01:54:35.081Z,14.70
2022-10-18T01:57:07.576Z,14.70
2022-10-18T01:59:59.885Z,14.80
2022-10-18T02:02:45.437Z,14.80
2022-10-18T02:05:29.071Z,14.80
2022-10-18T02:08:22.902Z,14.90
2022-10-18T02:11:00.412Z,15.00
2022-10-18T02:13:32.076Z,15.10
2022-10-18T02:16:04.916Z,15.10
2022-10-18T02:18:38.990Z,15.10
2022-10-18T02:21:09.686Z,15.10
2022-10-18T02:23:37.490Z,15.20
2022-10-18T02:26:04.443Z,15.20
2022-10-18T02:28:31.662Z,15.40
2022-10-18T02:31:09.134Z,15.40
2022-10-18T02:33:38.586Z,15.50
2022-10-18T02:36:18.422Z,15.60
2022-10-18T02:38:46.278Z,15.70
2022-10-18T02:41:21.531Z,15.70
2022-10-18T02:43:48.267Z,15.80
2022-10-18T02:46:15.142Z,15.90
2022-10-18T02:48:41.910Z,15.90
2022-10-18T02:51:08.723Z,16.00
2022-10-18T02:53:35.470Z,16.10
2022-10-18T02:56:03.270Z,16.10
2022-10-18T02:58:30.042Z,16.10
2022-10-18T03:00:56.774Z,16.20
2022-10-18T03:03:23.522Z,16.20
2022-10-18T03:05:51.275Z,16.20
2022-10-18T03:08:18.887Z,16.20
2022-10-18T03:10:46.713Z,16.00
2022-10-18T03:13:13.708Z,15.90
2022-10-18T03:15:40.541Z,15.80
2022-10-18T03:18:07.277Z,15.80
2022-10-18T03:20:34.571Z,15.80
2022-10-18T03:23:01.390Z,15.70
2022-10-18T03:25:28.116Z,15.70
2022-10-18T03:27:54.865Z,15.70
2022-10-18T03:30:21.564Z,15.70
2022-10-18T03:32:48.274Z,15.70
2022-10-18T03:35:15.035Z,15.60
2022-10-18T03:37:42.001Z,15.60
2022-10-18T03:40:09.186Z,15.60
2022-10-18T03:42:35.912Z,15.50
2022-10-18T03:45:03.235Z,15.50
2022-10-18T03:47:30.033Z,15.40
2022-10-18T03:49:57.337Z,15.40
2022-10-18T03:52:24.347Z,15.40
2022-10-18T03:54:51.080Z,15.40
2022-10-18T03:57:17.906Z,15.40
2022-10-18T03:59:44.625Z,15.40
2022-10-18T04:02:11.365Z,15.40
2022-10-18T04:04:38.112Z,15.30
2022-10-18T04:07:04.839Z,15.30
2022-10-18T04:09:31.699Z,15.30
2022-10-18T04:11:58.443Z,15.30
2022-10-18T04:14:25.378Z,15.30
2022-10-18T04:16:52.123Z,15.30
2022-10-18T04:19:20.121Z,15.30
2022-10-18T04:21:46.854Z,15.20
2022-10-18T04:24:13.620Z,15.20
2022-10-18T04:26:40.402Z,15.20
2022-10-18T04:29:07.256Z,15.20
2022-10-18T04:31:34.097Z,15.20
2022-10-18T04:34:02.298Z,15.10
2022-10-18T04:36:29.199Z,15.10
2022-10-18T04:38:55.913Z,15.10
2022-10-18T04:41:22.894Z,15.10
2022-10-18T04:43:49.645Z,15.10
2022-10-18T04:46:16.409Z,15.10
2022-10-18T04:48:43.141Z,15.00
2022-10-18T04:51:09.869Z,15.10
2022-10-18T04:53:36.625Z,15.00
2022-10-18T04:56:03.396Z,15.00
2022-10-18T04:58:30.349Z,15.00
2022-10-18T05:00:57.068Z,15.00
2022-10-18T05:03:23.829Z,15.00
2022-10-18T05:06:01.329Z,15.00
2022-10-18T05:08:30.053Z,15.00
2022-10-18T05:10:56.933Z,15.00
2022-10-18T05:13:23.753Z,14.90
2022-10-18T05:15:50.515Z,15.00
2022-10-18T05:18:17.482Z,14.90
2022-10-18T05:20:44.193Z,14.90
2022-10-18T05:23:11.031Z,14.90
2022-10-18T05:25:43.960Z,14.90
2022-10-18T05:28:27.164Z,14.90
2022-10-18T05:31:02.588Z,14.80
2022-10-18T05:33:29.880Z,14.80
2022-10-18T05:35:56.759Z,14.80
2022-10-18T05:38:23.632Z,14.80
2022-10-18T05:40:50.558Z,14.80
2022-10-18T05:43:20.414Z,14.90
2022-10-18T05:45:49.121Z,14.80
2022-10-18T05:48:15.943Z,14.80
2022-10-18T05:50:43.586Z,14.80
2022-10-18T05:53:18.533Z,14.80
2022-10-18T05:56:01.639Z,14.80
2022-10-18T05:58:28.426Z,14.80
2022-10-18T06:00:57.907Z,14.80
2022-10-18T06:03:24.651Z,14.80
2022-10-18T06:05:51.394Z,14.80
2022-10-18T06:08:18.111Z,14.80
2022-10-18T06:10:45.217Z,14.80
2022-10-18T06:13:11.959Z,14.80
2022-10-18T06:15:38.671Z,14.70
2022-10-18T06:18:05.381Z,14.70
2022-10-18T06:20:32.108Z,14.70
2022-10-18T06:22:58.808Z,14.70
2022-10-18T06:25:25.512Z,14.70
2022-10-18T06:27:52.249Z,14.70
2022-10-18T06:30:19.316Z,14.70
2022-10-18T06:32:46.041Z,14.70
2022-10-18T06:35:12.845Z,14.70
2022-10-18T06:37:39.631Z,14.70
2022-10-18T06:40:07.143Z,14.70
2022-10-18T06:42:34.289Z,14.70
2022-10-18T06:45:01.251Z,14.70
2022-10-18T06:47:27.951Z,14.70
2022-10-18T06:49:54.658Z,14.70
2022-10-18T06:52:25.477Z,14.70
2022-10-18T06:54:52.804Z,14.70
2022-10-18T06:57:20.854Z,14.80
2022-10-18T06:59:47.684Z,14.80
2022-10-18T07:02:16.862Z,14.80
2022-10-18T07:04:43.998Z,14.80
2022-10-18T07:07:10.719Z,14.70
2022-10-18T07:09:37.462Z,14.80
2022-10-18T07:12:04.528Z,14.80
2022-10-18T07:14:31.251Z,14.70
2022-10-18T07:17:00.890Z,14.80
2022-10-18T07:19:27.715Z,14.80
2022-10-18T07:21:54.579Z,14.80
2022-10-18T07:24:21.435Z,14.80
2022-10-18T07:26:48.508Z,14.80
2022-10-18T07:29:15.455Z,14.80
2022-10-18T07:31:42.329Z,14.80
2022-10-18T07:34:14.695Z,14.80
2022-10-18T07:36:42.152Z,14.80
2022-10-18T07:39:09.237Z,14.80
2022-10-18T07:41:36.322Z,14.80
2022-10-18T07:44:04.010Z,14.80
2022-10-18T07:46:30.742Z,14.80
2022-10-18T07:48:59.520Z,14.90
2022-10-18T07:51:28.138Z,14.90
2022-10-18T07:53:54.946Z,14.90
2022-10-18T07:56:22.338Z,14.90
2022-10-18T07:58:53.275Z,15.00
2022-10-18T08:01:21.853Z,15.10
2022-10-18T08:03:49.217Z,15.10
2022-10-18T08:06:18.454Z,15.10
2022-10-18T08:08:46.228Z,15.20
2022-10-18T08:11:24.484Z,15.20
2022-10-18T08:13:52.323Z,15.20
2022-10-18T08:16:22.190Z,15.20
2022-10-18T08:18:49.505Z,15.30
2022-10-18T08:21:17.743Z,15.20
2022-10-18T08:23:45.124Z,15.20
2022-10-18T08:26:15.082Z,15.20
2022-10-18T08:28:46.169Z,15.20
2022-10-18T08:31:21.061Z,15.20
2022-10-18T08:33:47.849Z,15.10
2022-10-18T08:36:16.447Z,15.10
2022-10-18T08:38:44.222Z,15.00
2022-10-18T08:41:40.854Z,15.00
2022-10-18T08:44:17.531Z,15.00
2022-10-18T08:46:50.018Z,15.00
2022-10-18T08:49:36.292Z,15.00
2022-10-18T08:52:04.512Z,15.10
2022-10-18T08:55:08.966Z,15.10
2022-10-18T08:57:36.423Z,15.20
2022-10-18T09:00:16.133Z,15.20
2022-10-18T09:03:20.745Z,15.20
2022-10-18T09:06:01.127Z,15.20
2022-10-18T09:08:46.024Z,15.10
2022-10-18T09:11:29.952Z,15.10
2022-10-18T09:14:24.027Z,15.00
2022-10-18T09:17:15.937Z,15.00
2022-10-18T09:19:55.069Z,14.90
2022-10-18T09:22:53.024Z,14.90
2022-10-18T09:25:21.487Z,14.90
2022-10-18T09:27:51.696Z,14.90
2022-10-18T09:30:39.582Z,14.80
2022-10-18T09:33:24.144Z,14.80
2022-10-18T09:36:01.053Z,14.80
2022-10-18T09:38:56.070Z,14.80
2022-10-18T09:41:47.493Z,14.80
2022-10-18T09:44:18.662Z,14.90
2022-10-18T09:46:50.638Z,14.90
2022-10-18T09:49:23.299Z,14.90
2022-10-18T09:51:53.322Z,14.90
2022-10-18T09:54:33.826Z,14.90
2022-10-18T09:57:32.945Z,14.90
2022-10-18T10:00:01.437Z,14.90
2022-10-18T10:02:28.206Z,14.80
2022-10-18T10:04:56.278Z,14.80
2022-10-18T10:07:32.470Z,14.90
2022-10-18T10:10:07.502Z,14.90
2022-10-18T10:12:37.504Z,14.90
2022-10-18T10:15:28.286Z,14.90
2022-10-18T10:18:02.851Z,14.90
2022-10-18T10:20:55.076Z,14.90
2022-10-18T10:23:30.489Z,14.90
2022-10-18T10:26:03.891Z,14.90
2022-10-18T10:28:35.295Z,14.90
2022-10-18T10:31:24.125Z,14.90
2022-10-18T10:34:12.852Z,14.90
2022-10-18T10:36:53.948Z,14.90
2022-10-18T10:39:23.619Z,14.90
2022-10-18T10:41:55.484Z,15.00
2022-10-18T10:44:31.899Z,15.00
2022-10-18T10:46:59.219Z,14.90
2022-10-18T10:49:40.725Z,14.90
2022-10-18T10:52:27.360Z,15.00
2022-10-18T10:55:05.771Z,15.00
2022-10-18T10:57:38.947Z,15.00
2022-10-18T11:00:06.100Z,15.10
2022-10-18T11:02:36.375Z,15.10
2022-10-18T11:05:24.367Z,15.10
2022-10-18T11:07:55.291Z,15.20
2022-10-18T11:10:26.556Z,15.10
2022-10-18T11:13:25.176Z,15.10
2022-10-18T11:16:03.835Z,15.20
2022-10-18T11:18:34.931Z,15.20
2022-10-18T11:21:13.603Z,15.10
2022-10-18T11:23:43.088Z,15.20
2022-10-18T11:26:12.660Z,15.20
2022-10-18T11:28:42.263Z,15.30
2022-10-18T11:31:18.051Z,15.20
2022-10-18T11:34:15.081Z,15.20
2022-10-18T11:36:56.069Z,15.20
2022-10-18T11:39:40.892Z,15.30
2022-10-18T11:42:31.314Z,15.30
2022-10-18T11:45:20.943Z,15.30
2022-10-18T11:47:49.967Z,15.10
2022-10-18T11:50:34.089Z,15.10
2022-10-18T11:53:55.010Z,15.20
2022-10-18T11:56:38.490Z,15.20
2022-10-18T11:59:18.472Z,15.20
2022-10-18T12:02:14.679Z,15.30
2022-10-18T12:05:23.268Z,15.40
2022-10-18T12:08:01.291Z,15.40
2022-10-18T12:10:44.256Z,15.40
2022-10-18T12:13:23.858Z,15.50
2022-10-18T12:15:51.877Z,15.50
2022-10-18T12:18:21.850Z,15.40
2022-10-18T12:20:52.198Z,15.30
2022-10-18T12:23:59.571Z,15.40
2022-10-18T12:26:28.673Z,15.30
2022-10-18T12:28:55.438Z,15.30
2022-10-18T12:31:35.050Z,15.40
2022-10-18T12:34:27.504Z,15.50
2022-10-18T12:37:18.540Z,15.40
2022-10-18T12:40:15.519Z,15.40
2022-10-18T12:42:46.183Z,15.30
2022-10-18T12:45:28.415Z,15.40
2022-10-18T12:47:59.855Z,15.40
2022-10-18T12:50:26.785Z,15.40
2022-10-18T12:53:02.524Z,15.40
2022-10-18T12:55:33.356Z,15.40
2022-10-18T12:58:01.866Z,15.50
2022-10-18T13:00:31.694Z,15.50
2022-10-18T13:03:13.500Z,15.40
2022-10-18T13:05:54.404Z,15.40
2022-10-18T13:08:28.091Z,15.50
2022-10-18T13:11:10.272Z,15.30
2022-10-18T13:14:07.840Z,15.30
2022-10-18T13:17:15.142Z,15.30
2022-10-18T13:20:25.133Z,15.20
2022-10-18T13:23:01.682Z,15.30
2022-10-18T13:25:51.537Z,15.20
2022-10-18T13:28:30.571Z,15.20
2022-10-18T13:31:20.021Z,15.20
2022-10-18T13:33:47.049Z,15.30
2022-10-18T13:36:22.472Z,15.30
2022-10-18T13:38:57.814Z,15.30
2022-10-18T13:41:32.866Z,15.30
2022-10-18T13:44:25.201Z,15.40
2022-10-18T13:46:51.958Z,15.50
2022-10-18T13:49:30.757Z,15.50
2022-10-18T13:52:26.668Z,15.50
2022-10-18T13:55:24.140Z,15.50
2022-10-18T13:58:15.164Z,15.70
2022-10-18T14:01:03.420Z,15.60
2022-10-18T14:03:58.238Z,15.70
2022-10-18T14:06:43.169Z,15.70
2022-10-18T14:09:40.204Z,15.60
2022-10-18T14:12:16.769Z,15.60
2022-10-18T14:14:48.599Z,15.60
2022-10-18T14:17:49.337Z,15.60
2022-10-18T14:20:55.286Z,15.70
2022-10-18T14:23:40.334Z,15.70
2022-10-18T14:26:14.393Z,15.70
2022-10-18T14:28:59.098Z,15.80
2022-10-18T14:31:27.993Z,15.80
2022-10-18T14:33:58.351Z,15.60
2022-10-18T14:36:29.509Z,15.60
2022-10-18T14:39:00.672Z,15.50
2022-10-18T14:41:36.088Z,15.50
2022-10-18T14:44:14.695Z,15.30
2022-10-18T14:47:06.498Z,15.30
2022-10-18T14:49:33.285Z,15.30
2022-10-18T14:52:00.907Z,15.40
2022-10-18T14:54:37.737Z,15.40
2022-10-18T14:57:06.306Z,15.30
2022-10-18T14:59:40.317Z,15.40
2022-10-18T15:02:29.668Z,15.40
2022-10-18T15:05:20.974Z,15.30
2022-10-18T15:07:50.149Z,15.20
2022-10-18T15:10:25.414Z,15.10
2022-10-18T15:13:10.159Z,15.10
2022-10-18T15:15:38.340Z,15.10
2022-10-18T15:18:06.666Z,15.00
2022-10-18T15:20:39.358Z,14.90
2022-10-18T15:23:26.038Z,14.90
2022-10-18T15:26:00.225Z,14.90
2022-10-18T15:28:40.673Z,14.90
2022-10-18T15:31:23.137Z,14.80
2022-10-18T15:33:50.197Z,14.80
2022-10-18T15:36:35.966Z,14.80
2022-10-18T15:39:06.004Z,14.70
2022-10-18T15:41:57.165Z,14.70
2022-10-18T15:44:46.219Z,14.70
2022-10-18T15:47:13.181Z,14.60
2022-10-18T15:49:46.208Z,14.60
2022-10-18T15:52:21.786Z,14.50
2022-10-18T15:57:20.991Z,14.40
2022-10-18T16:00:00.494Z,14.40
2022-10-18T16:02:27.497Z,14.40
2022-10-18T16:04:54.535Z,14.30
2022-10-18T16:07:21.430Z,14.30
2022-10-18T16:09:48.227Z,14.30
2022-10-18T16:12:14.983Z,14.20
2022-10-18T16:14:41.746Z,14.20
2022-10-18T16:17:16.590Z,14.20
2022-10-18T16:19:44.464Z,14.20
2022-10-18T16:24:45.874Z,14.10
2022-10-18T16:27:12.636Z,14.00
2022-10-18T16:29:41.196Z,14.00
2022-10-18T16:32:07.984Z,13.90
2022-10-18T16:34:34.888Z,13.90
2022-10-18T16:37:01.684Z,13.90
2022-10-18T16:39:29.949Z,13.70
2022-10-18T16:41:56.716Z,13.70
2022-10-18T16:44:23.457Z,13.60
2022-10-18T16:46:53.843Z,13.50
2022-10-18T16:49:25.085Z,13.50
2022-10-18T16:51:55.426Z,13.40
2022-10-18T16:54:22.900Z,13.30
2022-10-18T16:56:50.135Z,13.30
2022-10-18T16:59:29.938Z,13.20
2022-10-18T17:01:56.926Z,13.10
2022-10-18T17:04:23.839Z,13.10
2022-10-18T17:06:52.557Z,13.00
2022-10-18T17:09:19.274Z,12.90
2022-10-18T17:11:45.993Z,12.80
2022-10-18T17:14:12.722Z,12.80
2022-10-18T17:16:39.490Z,12.80
2022-10-18T17:19:10.323Z,12.70
2022-10-18T17:21:37.515Z,12.60
2022-10-18T17:24:06.099Z,12.60
2022-10-18T17:26:34.122Z,12.60
2022-10-18T17:29:06.974Z,12.50
2022-10-18T17:31:35.561Z,12.50
2022-10-18T17:34:02.683Z,12.40
2022-10-18T17:36:30.867Z,12.40
2022-10-18T17:38:57.954Z,12.30
2022-10-18T17:41:24.798Z,12.30
2022-10-18T17:43:51.853Z,12.30
2022-10-18T17:46:19.425Z,12.20
2022-10-18T17:48:46.560Z,12.10
2022-10-18T17:51:16.298Z,12.10
2022-10-18T17:53:43.210Z,12.00
2022-10-18T17:56:10.872Z,12.00
2022-10-18T17:58:37.800Z,12.00
2022-10-18T18:01:19.342Z,11.90
2022-10-18T18:03:49.414Z,11.90
2022-10-18T18:06:20.775Z,11.90
2022-10-18T18:08:48.417Z,11.80
2022-10-18T18:11:16.861Z,11.80
2022-10-18T18:13:43.651Z,11.70
2022-10-18T18:16:23.424Z,11.70
2022-10-18T18:18:53.507Z,11.60
2022-10-18T18:21:20.571Z,11.60
2022-10-18T18:23:48.416Z,11.50
2022-10-18T18:26:17.489Z,11.50
2022-10-18T18:28:45.004Z,11.40
2022-10-18T18:31:16.400Z,11.40
2022-10-18T18:33:43.823Z,11.30
2022-10-18T18:36:11.250Z,11.30
2022-10-18T18:38:39.770Z,11.20
2022-10-18T18:41:16.657Z,11.20
2022-10-18T18:43:45.797Z,11.10
2022-10-18T18:46:13.311Z,11.10
2022-10-18T18:48:40.918Z,11.00
2022-10-18T18:51:12.425Z,11.10
2022-10-18T18:53:44.561Z,11.10
2022-10-18T18:56:14.555Z,11.00
2022-10-18T18:58:43.962Z,11.00
2022-10-18T19:01:20.104Z,11.00
2022-10-18T19:03:50.194Z,11.00
2022-10-18T19:06:29.036Z,11.10
2022-10-18T19:09:04.478Z,11.30
2022-10-18T19:11:37.764Z,11.50
2022-10-18T19:14:06.483Z,11.40
2022-10-18T19:16:33.230Z,11.50
2022-10-18T19:19:11.503Z,11.60
2022-10-18T19:21:51.346Z,11.60
2022-10-18T19:24:19.515Z,11.60
2022-10-18T19:26:55.285Z,11.60
2022-10-18T19:29:25.028Z,11.50
2022-10-18T19:31:54.477Z,11.50
2022-10-18T19:34:23.507Z,11.50
2022-10-18T19:36:51.683Z,11.50
2022-10-18T19:39:26.743Z,11.40
2022-10-18T19:41:57.730Z,11.40
2022-10-18T19:44:27.448Z,11.40
2022-10-18T19:46:54.873Z,11.40
2022-10-18T19:49:21.736Z,11.30
2022-10-18T19:51:48.648Z,11.30
2022-10-18T19:54:16.295Z,11.30
2022-10-18T19:56:43.346Z,11.20
2022-10-18T19:59:11.327Z,11.20
2022-10-18T20:01:38.269Z,11.10
2022-10-18T20:04:05.468Z,11.10
2022-10-18T20:06:32.335Z,11.00
2022-10-18T20:08:59.573Z,10.90
2022-10-18T20:11:28.584Z,10.90
2022-10-18T20:13:55.784Z,10.90
2022-10-18T20:16:28.383Z,10.90
2022-10-18T20:19:07.479Z,10.90
2022-10-18T20:21:35.994Z,10.90
2022-10-18T20:24:04.702Z,10.90
2022-10-18T20:26:31.885Z,10.80
2022-10-18T20:28:59.876Z,10.80
2022-10-18T20:31:32.367Z,10.80
2022-10-18T20:34:01.867Z,10.70
2022-10-18T20:36:30.375Z,10.60
2022-10-18T20:38:58.014Z,10.60
2022-10-18T20:41:34.197Z,10.60
2022-10-18T20:44:07.103Z,10.50
2022-10-18T20:46:36.576Z,10.50
2022-10-18T20:49:04.795Z,10.50
2022-10-18T20:51:33.672Z,10.40
2022-10-18T20:54:01.842Z,10.40
2022-10-18T20:56:28.718Z,10.30
2022-10-18T20:58:56.785Z,10.30
2022-10-18T21:01:26.444Z,10.20
2022-10-18T21:03:54.687Z,10.20
2022-10-18T21:06:24.423Z,10.30
2022-10-18T21:08:56.437Z,10.30
2022-10-18T21:11:23.957Z,10.30
2022-10-18T21:14:02.743Z,10.30
2022-10-18T21:16:31.096Z,10.30
2022-10-18T21:19:02.944Z,10.20
2022-10-18T21:21:29.778Z,10.20
2022-10-18T21:23:56.529Z,10.10
2022-10-18T21:26:25.991Z,10.10
2022-10-18T21:28:54.774Z,10.00
2022-10-18T21:31:23.358Z,10.00
2022-10-18T21:33:55.328Z,10.00
2022-10-18T21:36:22.393Z,9.90
2022-10-18T21:38:49.682Z,9.90
2022-10-18T21:41:18.007Z,9.90
2022-10-18T21:43:48.073Z,9.80
2022-10-18T21:46:16.964Z,9.80
2022-10-18T21:48:51.990Z,9.80
2022-10-18T21:51:20.747Z,9.80
2022-10-18T21:53:49.684Z,9.70
2022-10-18T21:56:30.912Z,9.70
2022-10-18T21:58:58.289Z,9.70
2022-10-18T22:01:33.502Z,9.70
2022-10-18T22:04:02.404Z,9.70
2022-10-18T22:06:32.292Z,9.70
2022-10-18T22:09:01.292Z,9.60
2022-10-18T22:11:31.823Z,9.60
2022-10-18T22:13:59.212Z,9.60
2022-10-18T22:16:26.567Z,9.60
2022-10-18T22:18:57.870Z,9.60
2022-10-18T22:21:24.923Z,9.60
2022-10-18T22:23:53.948Z,9.60
2022-10-18T22:26:25.590Z,9.50
2022-10-18T22:29:01.634Z,9.50
2022-10-18T22:31:32.193Z,9.50
2022-10-18T22:34:03.125Z,9.50
2022-10-18T22:36:30.753Z,9.50
2022-10-18T22:38:57.740Z,9.40
2022-10-18T22:41:24.826Z,9.40
2022-10-18T22:43:52.226Z,9.40
2022-10-18T22:46:19.982Z,9.40
2022-10-18T22:48:47.125Z,9.40
2022-10-18T22:51:14.483Z,9.30
2022-10-18T22:53:41.553Z,9.30
2022-10-18T22:56:13.299Z,9.30
2022-10-18T22:58:40.086Z,9.30
2022-10-18T23:01:09.905Z,9.30
2022-10-18T23:03:37.364Z,9.30
2022-10-18T23:06:05.568Z,9.30
2022-10-18T23:08:32.474Z,9.30
2022-10-18T23:11:00.251Z,9.40
2022-10-18T23:13:28.109Z,9.40
2022-10-18T23:16:04.491Z,9.40
2022-10-18T23:18:32.569Z,9.50
2022-10-18T23:21:11.097Z,9.50
2022-10-18T23:23:40.114Z,9.50
2022-10-18T23:26:10.819Z,9.50
2022-10-18T23:28:39.840Z,9.50
2022-10-18T23:31:11.999Z,9.50
2022-10-18T23:33:39.582Z,9.50
2022-10-18T23:36:07.910Z,9.50
2022-10-18T23:38:35.860Z,9.50
2022-10-18T23:41:03.475Z,9.50
2022-10-18T23:43:30.370Z,9.50
2022-10-18T23:45:57.266Z,9.50
2022-10-18T23:48:24.408Z,9.60
2022-10-18T23:50:51.594Z,9.60
2022-10-18T23:53:19.639Z,9.60
2022-10-18T23:56:10.638Z,9.60
2022-10-18T23:58:38.443Z,9.70
